sensor_id;sensor_type;location;lat;lon;timestamp;P1;durP1;ratioP1;P2;durP2;ratioP2
47519;SDS011;33252;48.122;11.538;2024-02-21T00:00:04;4.47;;;1.65;;
47519;SDS011;33252;48.122;11.538;2024-02-21T00:02:30;2.78;;;1.40;;
47519;SDS011;33252;48.122;11.538;2024-02-21T00:04:55;3.03;;;0.90;;
47519;SDS011;33252;48.122;11.538;2024-02-21T00:07:21;3.45;;;1.10;;
47519;SDS011;33252;48.122;11.538;2024-02-21T00:09:47;4.22;;;1.17;;
47519;SDS011;33252;48.122;11.538;2024-02-21T00:12:13;6.13;;;1.23;;
47519;SDS011;33252;48.122;11.538;2024-02-21T00:14:39;5.47;;;1.10;;
47519;SDS011;33252;48.122;11.538;2024-02-21T00:17:05;3.92;;;1.00;;
47519;SDS011;33252;48.122;11.538;2024-02-21T00:19:31;4.40;;;0.93;;
47519;SDS011;33252;48.122;11.538;2024-02-21T00:21:56;5.82;;;1.20;;
47519;SDS011;33252;48.122;11.538;2024-02-21T00:24:22;2.55;;;1.10;;
47519;SDS011;33252;48.122;11.538;2024-02-21T00:26:47;8.63;;;2.17;;
47519;SDS011;33252;48.122;11.538;2024-02-21T00:29:13;4.63;;;1.58;;
47519;SDS011;33252;48.122;11.538;2024-02-21T00:31:38;3.10;;;0.93;;
47519;SDS011;33252;48.122;11.538;2024-02-21T00:34:04;4.78;;;1.55;;
47519;SDS011;33252;48.122;11.538;2024-02-21T00:36:29;3.92;;;0.98;;
47519;SDS011;33252;48.122;11.538;2024-02-21T00:38:55;5.50;;;1.30;;
47519;SDS011;33252;48.122;11.538;2024-02-21T00:41:20;6.80;;;1.17;;
47519;SDS011;33252;48.122;11.538;2024-02-21T00:43:46;2.53;;;1.15;;
47519;SDS011;33252;48.122;11.538;2024-02-21T00:46:13;3.95;;;1.10;;
47519;SDS011;33252;48.122;11.538;2024-02-21T00:48:39;2.35;;;0.82;;
47519;SDS011;33252;48.122;11.538;2024-02-21T00:51:04;3.60;;;1.00;;
47519;SDS011;33252;48.122;11.538;2024-02-21T00:53:30;3.55;;;1.13;;
47519;SDS011;33252;48.122;11.538;2024-02-21T00:55:55;2.97;;;1.00;;
47519;SDS011;33252;48.122;11.538;2024-02-21T00:58:21;4.00;;;0.93;;
47519;SDS011;33252;48.122;11.538;2024-02-21T01:00:47;2.05;;;0.80;;
47519;SDS011;33252;48.122;11.538;2024-02-21T01:03:13;4.53;;;1.42;;
47519;SDS011;33252;48.122;11.538;2024-02-21T01:05:38;3.85;;;1.27;;
47519;SDS011;33252;48.122;11.538;2024-02-21T01:08:04;4.28;;;1.38;;
47519;SDS011;33252;48.122;11.538;2024-02-21T01:10:30;3.17;;;0.95;;
47519;SDS011;33252;48.122;11.538;2024-02-21T01:12:55;6.65;;;1.02;;
47519;SDS011;33252;48.122;11.538;2024-02-21T01:15:21;4.70;;;0.80;;
47519;SDS011;33252;48.122;11.538;2024-02-21T01:17:47;6.57;;;1.23;;
47519;SDS011;33252;48.122;11.538;2024-02-21T01:20:12;5.32;;;1.02;;
47519;SDS011;33252;48.122;11.538;2024-02-21T01:22:38;4.35;;;1.60;;
47519;SDS011;33252;48.122;11.538;2024-02-21T01:25:03;3.10;;;1.73;;
47519;SDS011;33252;48.122;11.538;2024-02-21T01:27:29;3.03;;;1.27;;
47519;SDS011;33252;48.122;11.538;2024-02-21T01:29:55;3.72;;;1.02;;
47519;SDS011;33252;48.122;11.538;2024-02-21T01:32:21;2.63;;;1.15;;
47519;SDS011;33252;48.122;11.538;2024-02-21T01:34:49;2.35;;;0.57;;
47519;SDS011;33252;48.122;11.538;2024-02-21T01:37:15;2.47;;;0.80;;
47519;SDS011;33252;48.122;11.538;2024-02-21T01:39:40;1.65;;;0.60;;
47519;SDS011;33252;48.122;11.538;2024-02-21T01:42:06;3.03;;;0.88;;
47519;SDS011;33252;48.122;11.538;2024-02-21T01:44:31;3.78;;;1.23;;
47519;SDS011;33252;48.122;11.538;2024-02-21T01:46:57;1.15;;;0.60;;
47519;SDS011;33252;48.122;11.538;2024-02-21T01:49:23;3.10;;;1.17;;
47519;SDS011;33252;48.122;11.538;2024-02-21T01:51:48;3.60;;;0.80;;
47519;SDS011;33252;48.122;11.538;2024-02-21T01:54:14;6.47;;;1.75;;
47519;SDS011;33252;48.122;11.538;2024-02-21T01:56:42;2.55;;;0.85;;
47519;SDS011;33252;48.122;11.538;2024-02-21T01:59:09;2.25;;;0.80;;
47519;SDS011;33252;48.122;11.538;2024-02-21T02:01:35;2.45;;;0.80;;
47519;SDS011;33252;48.122;11.538;2024-02-21T02:04:00;3.70;;;0.60;;
47519;SDS011;33252;48.122;11.538;2024-02-21T02:06:26;2.80;;;0.80;;
47519;SDS011;33252;48.122;11.538;2024-02-21T02:08:53;1.73;;;0.90;;
47519;SDS011;33252;48.122;11.538;2024-02-21T02:11:19;1.60;;;0.75;;
47519;SDS011;33252;48.122;11.538;2024-02-21T02:13:45;2.47;;;0.50;;
47519;SDS011;33252;48.122;11.538;2024-02-21T02:16:10;3.42;;;0.93;;
47519;SDS011;33252;48.122;11.538;2024-02-21T02:18:36;3.53;;;1.17;;
47519;SDS011;33252;48.122;11.538;2024-02-21T02:21:03;3.67;;;0.73;;
47519;SDS011;33252;48.122;11.538;2024-02-21T02:23:40;1.38;;;0.63;;
47519;SDS011;33252;48.122;11.538;2024-02-21T02:26:07;1.05;;;0.73;;
47519;SDS011;33252;48.122;11.538;2024-02-21T02:28:32;1.52;;;0.65;;
47519;SDS011;33252;48.122;11.538;2024-02-21T02:30:58;2.53;;;1.17;;
47519;SDS011;33252;48.122;11.538;2024-02-21T02:33:24;2.03;;;0.73;;
47519;SDS011;33252;48.122;11.538;2024-02-21T02:35:49;1.67;;;0.50;;
47519;SDS011;33252;48.122;11.538;2024-02-21T02:38:15;1.42;;;0.50;;
47519;SDS011;33252;48.122;11.538;2024-02-21T02:40:41;2.38;;;1.25;;
47519;SDS011;33252;48.122;11.538;2024-02-21T02:43:07;2.45;;;0.57;;
47519;SDS011;33252;48.122;11.538;2024-02-21T02:45:32;0.85;;;0.50;;
47519;SDS011;33252;48.122;11.538;2024-02-21T02:47:58;1.75;;;0.68;;
47519;SDS011;33252;48.122;11.538;2024-02-21T02:50:24;1.52;;;0.50;;
47519;SDS011;33252;48.122;11.538;2024-02-21T02:52:51;1.00;;;0.50;;
47519;SDS011;33252;48.122;11.538;2024-02-21T02:55:17;0.75;;;0.45;;
47519;SDS011;33252;48.122;11.538;2024-02-21T02:57:43;3.15;;;0.80;;
47519;SDS011;33252;48.122;11.538;2024-02-21T03:00:10;1.30;;;0.77;;
47519;SDS011;33252;48.122;11.538;2024-02-21T03:02:37;4.22;;;0.90;;
47519;SDS011;33252;48.122;11.538;2024-02-21T03:05:11;1.13;;;0.50;;
47519;SDS011;33252;48.122;11.538;2024-02-21T03:07:41;1.77;;;0.57;;
47519;SDS011;33252;48.122;11.538;2024-02-21T03:10:07;0.80;;;0.60;;
47519;SDS011;33252;48.122;11.538;2024-02-21T03:12:33;2.30;;;0.60;;
47519;SDS011;33252;48.122;11.538;2024-02-21T03:14:59;2.85;;;0.50;;
47519;SDS011;33252;48.122;11.538;2024-02-21T03:17:24;1.70;;;0.75;;
47519;SDS011;33252;48.122;11.538;2024-02-21T03:19:52;2.38;;;1.00;;
47519;SDS011;33252;48.122;11.538;2024-02-21T03:22:17;2.03;;;0.50;;
47519;SDS011;33252;48.122;11.538;2024-02-21T03:24:44;2.05;;;0.40;;
47519;SDS011;33252;48.122;11.538;2024-02-21T03:27:10;1.83;;;0.60;;
47519;SDS011;33252;48.122;11.538;2024-02-21T03:29:35;1.08;;;0.65;;
47519;SDS011;33252;48.122;11.538;2024-02-21T03:32:01;3.97;;;0.70;;
47519;SDS011;33252;48.122;11.538;2024-02-21T03:34:26;2.55;;;0.55;;
47519;SDS011;33252;48.122;11.538;2024-02-21T03:36:52;1.73;;;0.55;;
47519;SDS011;33252;48.122;11.538;2024-02-21T03:39:18;2.63;;;0.75;;
47519;SDS011;33252;48.122;11.538;2024-02-21T03:41:43;1.88;;;0.55;;
47519;SDS011;33252;48.122;11.538;2024-02-21T03:44:09;2.85;;;0.50;;
47519;SDS011;33252;48.122;11.538;2024-02-21T03:46:34;1.33;;;0.50;;
47519;SDS011;33252;48.122;11.538;2024-02-21T03:49:00;3.40;;;0.60;;
47519;SDS011;33252;48.122;11.538;2024-02-21T03:51:26;2.45;;;0.70;;
47519;SDS011;33252;48.122;11.538;2024-02-21T03:53:51;0.70;;;0.40;;
47519;SDS011;33252;48.122;11.538;2024-02-21T03:56:17;1.05;;;0.45;;
47519;SDS011;33252;48.122;11.538;2024-02-21T03:58:42;1.65;;;0.47;;
47519;SDS011;33252;48.122;11.538;2024-02-21T04:01:08;0.93;;;0.50;;
47519;SDS011;33252;48.122;11.538;2024-02-21T04:03:33;0.90;;;0.57;;
47519;SDS011;33252;48.122;11.538;2024-02-21T04:05:59;1.77;;;0.70;;
47519;SDS011;33252;48.122;11.538;2024-02-21T04:08:25;3.30;;;0.50;;
47519;SDS011;33252;48.122;11.538;2024-02-21T04:10:51;1.50;;;0.40;;
47519;SDS011;33252;48.122;11.538;2024-02-21T04:13:16;1.48;;;0.40;;
47519;SDS011;33252;48.122;11.538;2024-02-21T04:15:42;1.60;;;0.43;;
47519;SDS011;33252;48.122;11.538;2024-02-21T04:18:07;0.70;;;0.47;;
47519;SDS011;33252;48.122;11.538;2024-02-21T04:20:33;0.88;;;0.57;;
47519;SDS011;33252;48.122;11.538;2024-02-21T04:23:00;2.05;;;0.40;;
47519;SDS011;33252;48.122;11.538;2024-02-21T04:25:25;1.08;;;0.43;;
47519;SDS011;33252;48.122;11.538;2024-02-21T04:27:51;1.80;;;0.30;;
47519;SDS011;33252;48.122;11.538;2024-02-21T04:30:17;0.75;;;0.40;;
47519;SDS011;33252;48.122;11.538;2024-02-21T04:32:42;1.42;;;0.38;;
47519;SDS011;33252;48.122;11.538;2024-02-21T04:35:08;1.75;;;0.43;;
47519;SDS011;33252;48.122;11.538;2024-02-21T04:37:34;3.33;;;0.32;;
47519;SDS011;33252;48.122;11.538;2024-02-21T04:39:59;1.65;;;0.50;;
47519;SDS011;33252;48.122;11.538;2024-02-21T04:42:25;1.25;;;0.40;;
47519;SDS011;33252;48.122;11.538;2024-02-21T04:44:50;1.98;;;0.38;;
47519;SDS011;33252;48.122;11.538;2024-02-21T04:47:16;2.75;;;0.50;;
47519;SDS011;33252;48.122;11.538;2024-02-21T04:49:42;1.95;;;0.40;;
47519;SDS011;33252;48.122;11.538;2024-02-21T04:52:07;1.33;;;0.70;;
47519;SDS011;33252;48.122;11.538;2024-02-21T04:54:33;0.82;;;0.40;;
47519;SDS011;33252;48.122;11.538;2024-02-21T04:57:00;2.25;;;0.50;;
47519;SDS011;33252;48.122;11.538;2024-02-21T04:59:26;1.80;;;1.23;;
47519;SDS011;33252;48.122;11.538;2024-02-21T05:01:51;2.15;;;0.32;;
47519;SDS011;33252;48.122;11.538;2024-02-21T05:04:17;3.90;;;0.55;;
47519;SDS011;33252;48.122;11.538;2024-02-21T05:06:42;1.92;;;0.32;;
47519;SDS011;33252;48.122;11.538;2024-02-21T05:09:08;1.15;;;0.43;;
47519;SDS011;33252;48.122;11.538;2024-02-21T05:11:34;2.22;;;0.45;;
47519;SDS011;33252;48.122;11.538;2024-02-21T05:14:00;0.82;;;0.30;;
47519;SDS011;33252;48.122;11.538;2024-02-21T05:16:26;2.35;;;0.65;;
47519;SDS011;33252;48.122;11.538;2024-02-21T05:18:51;2.83;;;0.70;;
47519;SDS011;33252;48.122;11.538;2024-02-21T05:21:17;3.20;;;1.08;;
47519;SDS011;33252;48.122;11.538;2024-02-21T05:23:43;2.85;;;1.10;;
47519;SDS011;33252;48.122;11.538;2024-02-21T05:26:08;2.95;;;0.70;;
47519;SDS011;33252;48.122;11.538;2024-02-21T05:28:34;1.33;;;0.52;;
47519;SDS011;33252;48.122;11.538;2024-02-21T05:31:00;3.85;;;0.60;;
47519;SDS011;33252;48.122;11.538;2024-02-21T05:33:25;1.20;;;0.65;;
47519;SDS011;33252;48.122;11.538;2024-02-21T05:35:51;3.70;;;0.50;;
47519;SDS011;33252;48.122;11.538;2024-02-21T05:38:17;3.30;;;0.80;;
47519;SDS011;33252;48.122;11.538;2024-02-21T05:40:44;4.00;;;1.15;;
47519;SDS011;33252;48.122;11.538;2024-02-21T05:43:10;2.80;;;1.80;;
47519;SDS011;33252;48.122;11.538;2024-02-21T05:45:35;1.60;;;0.70;;
47519;SDS011;33252;48.122;11.538;2024-02-21T05:48:01;2.47;;;0.73;;
47519;SDS011;33252;48.122;11.538;2024-02-21T05:50:28;3.63;;;0.65;;
47519;SDS011;33252;48.122;11.538;2024-02-21T05:52:54;3.20;;;0.65;;
47519;SDS011;33252;48.122;11.538;2024-02-21T05:55:20;2.55;;;0.82;;
47519;SDS011;33252;48.122;11.538;2024-02-21T05:57:46;2.35;;;0.90;;
47519;SDS011;33252;48.122;11.538;2024-02-21T06:00:12;1.42;;;0.55;;
47519;SDS011;33252;48.122;11.538;2024-02-21T06:02:39;2.17;;;1.30;;
47519;SDS011;33252;48.122;11.538;2024-02-21T06:05:05;2.58;;;1.00;;
47519;SDS011;33252;48.122;11.538;2024-02-21T06:07:32;2.47;;;0.90;;
47519;SDS011;33252;48.122;11.538;2024-02-21T06:09:59;3.80;;;1.10;;
47519;SDS011;33252;48.122;11.538;2024-02-21T06:12:25;2.92;;;0.70;;
47519;SDS011;33252;48.122;11.538;2024-02-21T06:14:50;1.48;;;0.60;;
47519;SDS011;33252;48.122;11.538;2024-02-21T06:17:16;1.20;;;0.70;;
47519;SDS011;33252;48.122;11.538;2024-02-21T06:19:42;2.50;;;0.70;;
47519;SDS011;33252;48.122;11.538;2024-02-21T06:22:09;1.80;;;0.60;;
47519;SDS011;33252;48.122;11.538;2024-02-21T06:24:35;3.55;;;0.70;;
47519;SDS011;33252;48.122;11.538;2024-02-21T06:27:01;3.08;;;0.73;;
47519;SDS011;33252;48.122;11.538;2024-02-21T06:29:28;6.00;;;0.82;;
47519;SDS011;33252;48.122;11.538;2024-02-21T06:31:53;0.98;;;0.57;;
47519;SDS011;33252;48.122;11.538;2024-02-21T06:34:19;1.70;;;0.52;;
47519;SDS011;33252;48.122;11.538;2024-02-21T06:36:44;1.67;;;0.70;;
47519;SDS011;33252;48.122;11.538;2024-02-21T06:39:10;2.70;;;0.43;;
47519;SDS011;33252;48.122;11.538;2024-02-21T06:41:36;3.25;;;0.77;;
47519;SDS011;33252;48.122;11.538;2024-02-21T06:44:02;4.15;;;0.90;;
47519;SDS011;33252;48.122;11.538;2024-02-21T06:46:28;1.95;;;0.50;;
47519;SDS011;33252;48.122;11.538;2024-02-21T06:48:54;2.05;;;0.77;;
47519;SDS011;33252;48.122;11.538;2024-02-21T06:51:25;4.13;;;0.50;;
47519;SDS011;33252;48.122;11.538;2024-02-21T06:53:50;1.05;;;0.50;;
47519;SDS011;33252;48.122;11.538;2024-02-21T06:56:16;1.67;;;0.93;;
47519;SDS011;33252;48.122;11.538;2024-02-21T06:58:41;3.03;;;1.05;;
47519;SDS011;33252;48.122;11.538;2024-02-21T07:01:07;1.08;;;0.52;;
47519;SDS011;33252;48.122;11.538;2024-02-21T07:03:33;1.30;;;0.50;;
47519;SDS011;33252;48.122;11.538;2024-02-21T07:05:59;2.58;;;0.60;;
47519;SDS011;33252;48.122;11.538;2024-02-21T07:08:25;1.58;;;0.50;;
47519;SDS011;33252;48.122;11.538;2024-02-21T07:10:51;2.78;;;0.50;;
47519;SDS011;33252;48.122;11.538;2024-02-21T07:13:16;1.05;;;0.40;;
47519;SDS011;33252;48.122;11.538;2024-02-21T07:15:42;2.03;;;0.73;;
47519;SDS011;33252;48.122;11.538;2024-02-21T07:18:08;1.00;;;0.32;;
47519;SDS011;33252;48.122;11.538;2024-02-21T07:20:34;2.40;;;0.50;;
47519;SDS011;33252;48.122;11.538;2024-02-21T07:23:01;1.88;;;0.93;;
47519;SDS011;33252;48.122;11.538;2024-02-21T07:25:27;4.78;;;0.40;;
47519;SDS011;33252;48.122;11.538;2024-02-21T07:27:53;1.17;;;0.50;;
47519;SDS011;33252;48.122;11.538;2024-02-21T07:30:18;5.82;;;0.50;;
47519;SDS011;33252;48.122;11.538;2024-02-21T07:32:44;0.70;;;0.35;;
47519;SDS011;33252;48.122;11.538;2024-02-21T07:35:09;1.63;;;0.40;;
47519;SDS011;33252;48.122;11.538;2024-02-21T07:37:36;4.18;;;0.68;;
47519;SDS011;33252;48.122;11.538;2024-02-21T07:40:03;4.43;;;0.45;;
47519;SDS011;33252;48.122;11.538;2024-02-21T07:42:30;2.45;;;0.40;;
47519;SDS011;33252;48.122;11.538;2024-02-21T07:44:56;2.00;;;0.43;;
47519;SDS011;33252;48.122;11.538;2024-02-21T07:47:21;3.33;;;0.30;;
47519;SDS011;33252;48.122;11.538;2024-02-21T07:49:48;3.55;;;0.93;;
47519;SDS011;33252;48.122;11.538;2024-02-21T07:52:14;2.08;;;0.25;;
47519;SDS011;33252;48.122;11.538;2024-02-21T07:54:40;1.77;;;0.30;;
47519;SDS011;33252;48.122;11.538;2024-02-21T07:57:06;1.35;;;0.50;;
47519;SDS011;33252;48.122;11.538;2024-02-21T07:59:32;3.22;;;0.52;;
47519;SDS011;33252;48.122;11.538;2024-02-21T08:01:58;8.20;;;0.68;;
47519;SDS011;33252;48.122;11.538;2024-02-21T08:04:24;2.95;;;0.55;;
47519;SDS011;33252;48.122;11.538;2024-02-21T08:06:53;2.35;;;0.63;;
47519;SDS011;33252;48.122;11.538;2024-02-21T08:09:20;1.77;;;0.65;;
47519;SDS011;33252;48.122;11.538;2024-02-21T08:11:49;0.88;;;0.50;;
47519;SDS011;33252;48.122;11.538;2024-02-21T08:14:14;0.80;;;0.30;;
47519;SDS011;33252;48.122;11.538;2024-02-21T08:16:41;0.65;;;0.30;;
47519;SDS011;33252;48.122;11.538;2024-02-21T08:19:07;3.22;;;0.40;;
47519;SDS011;33252;48.122;11.538;2024-02-21T08:21:32;0.68;;;0.40;;
47519;SDS011;33252;48.122;11.538;2024-02-21T08:23:58;4.20;;;2.28;;
47519;SDS011;33252;48.122;11.538;2024-02-21T08:26:23;0.73;;;0.30;;
47519;SDS011;33252;48.122;11.538;2024-02-21T08:28:52;1.25;;;0.40;;
47519;SDS011;33252;48.122;11.538;2024-02-21T08:31:18;0.65;;;0.30;;
47519;SDS011;33252;48.122;11.538;2024-02-21T08:33:44;3.72;;;0.50;;
47519;SDS011;33252;48.122;11.538;2024-02-21T08:36:17;1.35;;;0.40;;
47519;SDS011;33252;48.122;11.538;2024-02-21T08:38:44;2.80;;;0.30;;
47519;SDS011;33252;48.122;11.538;2024-02-21T08:41:09;1.42;;;0.30;;
47519;SDS011;33252;48.122;11.538;2024-02-21T08:43:35;1.83;;;0.40;;
47519;SDS011;33252;48.122;11.538;2024-02-21T08:46:01;1.63;;;0.30;;
47519;SDS011;33252;48.122;11.538;2024-02-21T08:48:26;0.73;;;0.30;;
47519;SDS011;33252;48.122;11.538;2024-02-21T08:50:52;1.30;;;0.30;;
47519;SDS011;33252;48.122;11.538;2024-02-21T08:53:19;0.55;;;0.20;;
47519;SDS011;33252;48.122;11.538;2024-02-21T08:55:45;1.00;;;0.25;;
47519;SDS011;33252;48.122;11.538;2024-02-21T08:58:10;1.50;;;0.20;;
47519;SDS011;33252;48.122;11.538;2024-02-21T09:00:36;1.25;;;0.30;;
47519;SDS011;33252;48.122;11.538;2024-02-21T09:03:02;2.55;;;0.40;;
47519;SDS011;33252;48.122;11.538;2024-02-21T09:05:28;0.30;;;0.22;;
47519;SDS011;33252;48.122;11.538;2024-02-21T09:07:54;1.77;;;0.20;;
47519;SDS011;33252;48.122;11.538;2024-02-21T09:10:20;2.08;;;0.30;;
47519;SDS011;33252;48.122;11.538;2024-02-21T09:12:45;1.33;;;0.40;;
47519;SDS011;33252;48.122;11.538;2024-02-21T09:15:12;0.65;;;0.35;;
47519;SDS011;33252;48.122;11.538;2024-02-21T09:17:38;1.38;;;0.75;;
47519;SDS011;33252;48.122;11.538;2024-02-21T09:20:04;0.57;;;0.20;;
47519;SDS011;33252;48.122;11.538;2024-02-21T09:22:31;1.33;;;0.30;;
47519;SDS011;33252;48.122;11.538;2024-02-21T09:24:59;2.00;;;0.40;;
47519;SDS011;33252;48.122;11.538;2024-02-21T09:27:25;1.10;;;0.25;;
47519;SDS011;33252;48.122;11.538;2024-02-21T09:29:50;2.50;;;0.20;;
47519;SDS011;33252;48.122;11.538;2024-02-21T09:32:16;0.60;;;0.28;;
47519;SDS011;33252;48.122;11.538;2024-02-21T09:34:42;0.65;;;0.30;;
47519;SDS011;33252;48.122;11.538;2024-02-21T09:37:08;0.60;;;0.22;;
47519;SDS011;33252;48.122;11.538;2024-02-21T09:39:33;3.65;;;0.20;;
47519;SDS011;33252;48.122;11.538;2024-02-21T09:42:00;0.63;;;0.30;;
47519;SDS011;33252;48.122;11.538;2024-02-21T09:44:33;1.52;;;0.22;;
47519;SDS011;33252;48.122;11.538;2024-02-21T09:47:02;0.65;;;0.30;;
47519;SDS011;33252;48.122;11.538;2024-02-21T09:49:30;1.92;;;0.30;;
47519;SDS011;33252;48.122;11.538;2024-02-21T09:52:00;0.75;;;0.30;;
47519;SDS011;33252;48.122;11.538;2024-02-21T09:54:28;0.30;;;0.20;;
47519;SDS011;33252;48.122;11.538;2024-02-21T09:56:55;1.73;;;0.30;;
47519;SDS011;33252;48.122;11.538;2024-02-21T09:59:20;1.83;;;0.30;;
47519;SDS011;33252;48.122;11.538;2024-02-21T10:01:46;0.95;;;0.10;;
47519;SDS011;33252;48.122;11.538;2024-02-21T10:04:12;1.10;;;0.20;;
47519;SDS011;33252;48.122;11.538;2024-02-21T10:06:37;0.65;;;0.20;;
47519;SDS011;33252;48.122;11.538;2024-02-21T10:09:04;1.55;;;0.40;;
47519;SDS011;33252;48.122;11.538;2024-02-21T10:11:31;1.85;;;0.50;;
47519;SDS011;33252;48.122;11.538;2024-02-21T10:14:03;1.48;;;0.50;;
47519;SDS011;33252;48.122;11.538;2024-02-21T10:16:32;1.90;;;0.47;;
47519;SDS011;33252;48.122;11.538;2024-02-21T10:18:58;1.42;;;0.43;;
47519;SDS011;33252;48.122;11.538;2024-02-21T10:21:24;3.67;;;1.13;;
47519;SDS011;33252;48.122;11.538;2024-02-21T10:23:51;1.05;;;0.30;;
47519;SDS011;33252;48.122;11.538;2024-02-21T10:26:19;0.30;;;0.20;;
47519;SDS011;33252;48.122;11.538;2024-02-21T10:28:46;1.00;;;0.30;;
47519;SDS011;33252;48.122;11.538;2024-02-21T10:31:23;2.90;;;1.15;;
47519;SDS011;33252;48.122;11.538;2024-02-21T10:36:21;1.25;;;0.40;;
47519;SDS011;33252;48.122;11.538;2024-02-21T10:38:47;1.33;;;0.30;;
47519;SDS011;33252;48.122;11.538;2024-02-21T10:41:13;0.20;;;0.20;;
47519;SDS011;33252;48.122;11.538;2024-02-21T10:43:42;1.33;;;0.20;;
47519;SDS011;33252;48.122;11.538;2024-02-21T10:46:14;0.47;;;0.20;;
47519;SDS011;33252;48.122;11.538;2024-02-21T10:48:44;0.80;;;0.20;;
47519;SDS011;33252;48.122;11.538;2024-02-21T10:53:45;0.47;;;0.30;;
47519;SDS011;33252;48.122;11.538;2024-02-21T10:56:30;0.43;;;0.10;;
47519;SDS011;33252;48.122;11.538;2024-02-21T10:59:00;0.20;;;0.10;;
47519;SDS011;33252;48.122;11.538;2024-02-21T11:01:28;0.25;;;0.10;;
47519;SDS011;33252;48.122;11.538;2024-02-21T11:03:56;0.43;;;0.20;;
47519;SDS011;33252;48.122;11.538;2024-02-21T11:06:24;0.60;;;0.20;;
47519;SDS011;33252;48.122;11.538;2024-02-21T11:09:01;0.13;;;0.05;;
47519;SDS011;33252;48.122;11.538;2024-02-21T11:11:28;1.88;;;0.10;;
47519;SDS011;33252;48.122;11.538;2024-02-21T11:14:03;0.98;;;0.20;;
47519;SDS011;33252;48.122;11.538;2024-02-21T11:16:34;0.32;;;0.17;;
47519;SDS011;33252;48.122;11.538;2024-02-21T11:19:18;1.17;;;0.10;;
47519;SDS011;33252;48.122;11.538;2024-02-21T11:24:09;0.13;;;0.10;;
47519;SDS011;33252;48.122;11.538;2024-02-21T11:26:37;0.28;;;0.20;;
47519;SDS011;33252;48.122;11.538;2024-02-21T11:29:03;0.73;;;0.10;;
47519;SDS011;33252;48.122;11.538;2024-02-21T11:31:44;0.30;;;0.10;;
47519;SDS011;33252;48.122;11.538;2024-02-21T11:34:13;0.10;;;0.00;;
47519;SDS011;33252;48.122;11.538;2024-02-21T11:36:46;0.10;;;0.00;;
47519;SDS011;33252;48.122;11.538;2024-02-21T11:42:05;1.08;;;0.10;;
47519;SDS011;33252;48.122;11.538;2024-02-21T11:44:36;0.25;;;0.10;;
47519;SDS011;33252;48.122;11.538;2024-02-21T11:47:05;0.17;;;0.10;;
47519;SDS011;33252;48.122;11.538;2024-02-21T11:49:36;0.10;;;0.10;;
47519;SDS011;33252;48.122;11.538;2024-02-21T11:52:03;1.10;;;0.10;;
47519;SDS011;33252;48.122;11.538;2024-02-21T11:54:29;0.25;;;0.10;;
47519;SDS011;33252;48.122;11.538;2024-02-21T11:56:55;0.10;;;0.05;;
47519;SDS011;33252;48.122;11.538;2024-02-21T11:59:21;0.57;;;0.10;;
47519;SDS011;33252;48.122;11.538;2024-02-21T12:01:47;0.28;;;0.10;;
47519;SDS011;33252;48.122;11.538;2024-02-21T12:04:21;0.28;;;0.17;;
47519;SDS011;33252;48.122;11.538;2024-02-21T12:06:48;1.10;;;0.10;;
47519;SDS011;33252;48.122;11.538;2024-02-21T12:09:15;0.35;;;0.10;;
47519;SDS011;33252;48.122;11.538;2024-02-21T12:11:44;1.60;;;0.28;;
47519;SDS011;33252;48.122;11.538;2024-02-21T12:14:11;0.40;;;0.20;;
47519;SDS011;33252;48.122;11.538;2024-02-21T12:16:40;0.20;;;0.08;;
47519;SDS011;33252;48.122;11.538;2024-02-21T12:19:07;0.52;;;0.10;;
47519;SDS011;33252;48.122;11.538;2024-02-21T12:21:34;0.35;;;0.10;;
47519;SDS011;33252;48.122;11.538;2024-02-21T12:24:12;0.95;;;0.10;;
47519;SDS011;33252;48.122;11.538;2024-02-21T12:26:40;0.20;;;0.10;;
47519;SDS011;33252;48.122;11.538;2024-02-21T12:29:06;0.22;;;0.10;;
47519;SDS011;33252;48.122;11.538;2024-02-21T12:31:34;0.32;;;0.10;;
47519;SDS011;33252;48.122;11.538;2024-02-21T12:34:01;0.82;;;0.10;;
47519;SDS011;33252;48.122;11.538;2024-02-21T12:36:27;0.80;;;0.30;;
47519;SDS011;33252;48.122;11.538;2024-02-21T12:38:53;1.33;;;0.10;;
47519;SDS011;33252;48.122;11.538;2024-02-21T12:41:18;1.35;;;0.10;;
47519;SDS011;33252;48.122;11.538;2024-02-21T12:43:44;1.08;;;0.08;;
47519;SDS011;33252;48.122;11.538;2024-02-21T12:46:09;0.43;;;0.20;;
47519;SDS011;33252;48.122;11.538;2024-02-21T12:48:35;0.15;;;0.10;;
47519;SDS011;33252;48.122;11.538;2024-02-21T12:51:00;0.28;;;0.17;;
47519;SDS011;33252;48.122;11.538;2024-02-21T12:53:26;0.50;;;0.13;;
47519;SDS011;33252;48.122;11.538;2024-02-21T12:55:52;0.88;;;0.10;;
47519;SDS011;33252;48.122;11.538;2024-02-21T12:58:18;1.10;;;0.10;;
47519;SDS011;33252;48.122;11.538;2024-02-21T13:00:43;0.20;;;0.00;;
47519;SDS011;33252;48.122;11.538;2024-02-21T13:03:09;1.00;;;0.10;;
47519;SDS011;33252;48.122;11.538;2024-02-21T13:05:38;0.13;;;0.00;;
47519;SDS011;33252;48.122;11.538;2024-02-21T13:08:04;0.25;;;0.10;;
47519;SDS011;33252;48.122;11.538;2024-02-21T13:10:31;0.93;;;0.10;;
47519;SDS011;33252;48.122;11.538;2024-02-21T13:12:58;0.32;;;0.20;;
47519;SDS011;33252;48.122;11.538;2024-02-21T13:15:24;0.80;;;0.10;;
47519;SDS011;33252;48.122;11.538;2024-02-21T13:17:49;0.17;;;0.10;;
47519;SDS011;33252;48.122;11.538;2024-02-21T13:20:15;4.47;;;0.13;;
47519;SDS011;33252;48.122;11.538;2024-02-21T13:22:40;0.88;;;0.10;;
47519;SDS011;33252;48.122;11.538;2024-02-21T13:25:06;0.28;;;0.10;;
47519;SDS011;33252;48.122;11.538;2024-02-21T13:27:32;0.50;;;0.10;;
47519;SDS011;33252;48.122;11.538;2024-02-21T13:29:58;0.55;;;0.20;;
47519;SDS011;33252;48.122;11.538;2024-02-21T13:32:25;0.13;;;0.10;;
47519;SDS011;33252;48.122;11.538;2024-02-21T13:34:51;2.17;;;0.30;;
47519;SDS011;33252;48.122;11.538;2024-02-21T13:37:17;3.85;;;2.17;;
47519;SDS011;33252;48.122;11.538;2024-02-21T13:39:43;2.88;;;0.15;;
47519;SDS011;33252;48.122;11.538;2024-02-21T13:42:08;0.63;;;0.20;;
47519;SDS011;33252;48.122;11.538;2024-02-21T13:44:34;0.13;;;0.10;;
47519;SDS011;33252;48.122;11.538;2024-02-21T13:47:00;0.40;;;0.13;;
47519;SDS011;33252;48.122;11.538;2024-02-21T13:49:26;0.32;;;0.15;;
47519;SDS011;33252;48.122;11.538;2024-02-21T13:51:51;0.40;;;0.10;;
47519;SDS011;33252;48.122;11.538;2024-02-21T13:54:17;0.90;;;0.32;;
47519;SDS011;33252;48.122;11.538;2024-02-21T13:56:44;0.77;;;0.30;;
47519;SDS011;33252;48.122;11.538;2024-02-21T13:59:11;0.52;;;0.13;;
47519;SDS011;33252;48.122;11.538;2024-02-21T14:01:38;0.40;;;0.20;;
47519;SDS011;33252;48.122;11.538;2024-02-21T14:04:04;1.10;;;0.10;;
47519;SDS011;33252;48.122;11.538;2024-02-21T14:06:29;1.45;;;0.22;;
47519;SDS011;33252;48.122;11.538;2024-02-21T14:08:55;0.95;;;0.20;;
47519;SDS011;33252;48.122;11.538;2024-02-21T14:11:21;0.95;;;0.20;;
47519;SDS011;33252;48.122;11.538;2024-02-21T14:13:46;1.02;;;0.20;;
47519;SDS011;33252;48.122;11.538;2024-02-21T14:16:12;0.38;;;0.10;;
47519;SDS011;33252;48.122;11.538;2024-02-21T14:18:38;0.60;;;0.20;;
47519;SDS011;33252;48.122;11.538;2024-02-21T14:21:12;1.45;;;0.50;;
47519;SDS011;33252;48.122;11.538;2024-02-21T14:23:38;0.85;;;0.38;;
47519;SDS011;33252;48.122;11.538;2024-02-21T14:26:04;1.50;;;0.50;;
47519;SDS011;33252;48.122;11.538;2024-02-21T14:28:30;1.10;;;0.30;;
47519;SDS011;33252;48.122;11.538;2024-02-21T14:30:55;1.67;;;0.55;;
47519;SDS011;33252;48.122;11.538;2024-02-21T14:33:25;0.93;;;0.30;;
47519;SDS011;33252;48.122;11.538;2024-02-21T14:35:54;0.75;;;0.20;;
47519;SDS011;33252;48.122;11.538;2024-02-21T14:38:19;1.00;;;0.25;;